Estación Meteorológica Peña el Pijo (Robertgarden) [ 02/03/23 03:00:53 CET ]

Fecha Hora Presion(HPa) Temp (°C) Humedad % Rocio (°C) Viento ( m/s) Direccion Lluvia 1Hora(mm) Lluvia 24H(mm) LLuvia Total(mm)
2012-Jan-07 01:01:17 1018.500 1.6 82 -1.2         151.25
2012-Jan-07 02:01:42 1018.300 1.1 82 -1.7         151.25
2012-Jan-07 03:01:42 1018.200 0.4 84 -2.0         151.25
2012-Jan-07 04:04:11 1018.200 0.2 85 -2.0         151.25
2012-Jan-07 05:01:14 1018.000 0.0 86 -2.0         151.25
2012-Jan-07 06:01:13 1018.000 0.2 87 -1.7         151.25
2012-Jan-07 07:01:18 1018.400 0.1 86 -1.9         151.25
2012-Jan-07 08:01:13 1018.800 -0.4 87 -2.3         151.25
2012-Jan-07 09:01:13 1018.800 0.1 88 -1.6         151.25
2012-Jan-07 10:01:14 1019.100 3.9 83 1.3         151.25
2012-Jan-07 11:01:12 1019.200 9.9 62 2.9         151.25
2012-Jan-07 12:01:13 1018.800 14.4 45 2.6         151.25
2012-Jan-07 13:01:17 1017.900 15.9 36 0.7         151.25
2012-Jan-07 14:01:13 1017.400 16.5 31 -0.8         151.25
2012-Jan-07 15:01:11 1016.700 16.1 30 -1.5         151.25
2012-Jan-07 16:01:13 1016.500 17.3 28 -1.5         151.25
2012-Jan-07 17:01:13 1016.700 13.1 40 -0.2         151.25
2012-Jan-07 18:01:13 1017.400 10.0 48 -0.5         151.25
2012-Jan-07 19:01:11 1017.900 6.2 57 -1.7         151.25
2012-Jan-07 20:01:13 1018.200 4.2 63 -2.3         151.25
2012-Jan-07 21:01:17 1018.500 1.3 68 -4.0         151.25
2012-Jan-07 22:01:13 1018.800 -0.2 74 -4.3         151.25
2012-Jan-07 23:01:14 1018.800 -0.7 78 -4.1         151.25

Temperatura Máxima:17°    Temperatura Mínima:
Presión Máxima:1019.200 Hpa    Presión Mínima:1016.500 Hpa


Volver